sensor_id;sensor_type;location;lat;lon;timestamp;temperature;humidity
5834;DHT22;2943;48.012;10.968;2023-01-13T00:00:13;6.90;99.90
5834;DHT22;2943;48.012;10.968;2023-01-13T00:02:41;7.00;99.90
5834;DHT22;2943;48.012;10.968;2023-01-13T00:05:08;7.00;99.90
5834;DHT22;2943;48.012;10.968;2023-01-13T00:07:35;7.00;99.90
5834;DHT22;2943;48.012;10.968;2023-01-13T00:10:05;7.00;99.90
5834;DHT22;2943;48.012;10.968;2023-01-13T00:12:34;7.00;99.90
5834;DHT22;2943;48.012;10.968;2023-01-13T00:15:00;7.00;99.90
5834;DHT22;2943;48.012;10.968;2023-01-13T00:17:28;7.00;99.90
5834;DHT22;2943;48.012;10.968;2023-01-13T00:19:57;7.00;99.90
5834;DHT22;2943;48.012;10.968;2023-01-13T00:22:23;7.00;99.90
5834;DHT22;2943;48.012;10.968;2023-01-13T00:24:50;7.00;99.90
5834;DHT22;2943;48.012;10.968;2023-01-13T00:27:17;7.10;99.90
5834;DHT22;2943;48.012;10.968;2023-01-13T00:29:44;7.10;99.90
5834;DHT22;2943;48.012;10.968;2023-01-13T00:32:11;7.10;99.90
5834;DHT22;2943;48.012;10.968;2023-01-13T00:34:38;7.10;99.90
5834;DHT22;2943;48.012;10.968;2023-01-13T00:37:06;7.00;99.90
5834;DHT22;2943;48.012;10.968;2023-01-13T00:39:34;7.00;99.90
5834;DHT22;2943;48.012;10.968;2023-01-13T00:42:01;7.00;99.90
5834;DHT22;2943;48.012;10.968;2023-01-13T00:44:45;7.00;99.90
5834;DHT22;2943;48.012;10.968;2023-01-13T00:47:12;7.00;99.90
5834;DHT22;2943;48.012;10.968;2023-01-13T00:49:39;7.00;99.90
5834;DHT22;2943;48.012;10.968;2023-01-13T00:52:07;7.00;99.90
5834;DHT22;2943;48.012;10.968;2023-01-13T00:54:34;7.00;99.90
5834;DHT22;2943;48.012;10.968;2023-01-13T00:57:02;7.00;99.90
5834;DHT22;2943;48.012;10.968;2023-01-13T00:59:29;7.00;99.90
5834;DHT22;2943;48.012;10.968;2023-01-13T01:01:56;6.90;99.90
5834;DHT22;2943;48.012;10.968;2023-01-13T01:04:25;6.90;99.90
5834;DHT22;2943;48.012;10.968;2023-01-13T01:06:52;6.90;99.90
5834;DHT22;2943;48.012;10.968;2023-01-13T01:09:21;6.90;99.90
5834;DHT22;2943;48.012;10.968;2023-01-13T01:11:57;6.90;99.90
5834;DHT22;2943;48.012;10.968;2023-01-13T01:14:23;6.90;99.90
5834;DHT22;2943;48.012;10.968;2023-01-13T01:16:51;6.90;99.90
5834;DHT22;2943;48.012;10.968;2023-01-13T01:19:18;6.90;99.90
5834;DHT22;2943;48.012;10.968;2023-01-13T01:21:45;6.90;99.90
5834;DHT22;2943;48.012;10.968;2023-01-13T01:24:12;6.90;99.90
5834;DHT22;2943;48.012;10.968;2023-01-13T01:26:42;6.80;99.90
5834;DHT22;2943;48.012;10.968;2023-01-13T01:29:12;6.80;99.90
5834;DHT22;2943;48.012;10.968;2023-01-13T01:31:40;6.80;99.90
5834;DHT22;2943;48.012;10.968;2023-01-13T01:34:06;6.80;99.90
5834;DHT22;2943;48.012;10.968;2023-01-13T01:36:33;6.90;99.90
5834;DHT22;2943;48.012;10.968;2023-01-13T01:39:03;6.80;99.90
5834;DHT22;2943;48.012;10.968;2023-01-13T01:41:32;6.90;99.90
5834;DHT22;2943;48.012;10.968;2023-01-13T01:44:04;6.90;99.90
5834;DHT22;2943;48.012;10.968;2023-01-13T01:46:34;6.90;99.90
5834;DHT22;2943;48.012;10.968;2023-01-13T01:49:11;6.90;99.90
5834;DHT22;2943;48.012;10.968;2023-01-13T01:51:43;6.90;99.90
5834;DHT22;2943;48.012;10.968;2023-01-13T01:54:14;6.90;99.90
5834;DHT22;2943;48.012;10.968;2023-01-13T01:56:44;7.00;99.90
5834;DHT22;2943;48.012;10.968;2023-01-13T01:59:13;7.00;99.90
5834;DHT22;2943;48.012;10.968;2023-01-13T02:01:41;7.00;99.90
5834;DHT22;2943;48.012;10.968;2023-01-13T02:04:11;7.00;99.90
5834;DHT22;2943;48.012;10.968;2023-01-13T02:06:40;7.00;99.90
5834;DHT22;2943;48.012;10.968;2023-01-13T02:09:08;7.00;99.90
5834;DHT22;2943;48.012;10.968;2023-01-13T02:11:36;7.00;99.90
5834;DHT22;2943;48.012;10.968;2023-01-13T02:14:23;7.10;99.90
5834;DHT22;2943;48.012;10.968;2023-01-13T02:17:02;7.10;99.90
5834;DHT22;2943;48.012;10.968;2023-01-13T02:25:38;7.10;99.90
5834;DHT22;2943;48.012;10.968;2023-01-13T02:28:23;7.20;99.90
5834;DHT22;2943;48.012;10.968;2023-01-13T02:30:58;7.20;99.90
5834;DHT22;2943;48.012;10.968;2023-01-13T02:33:58;7.20;99.90
5834;DHT22;2943;48.012;10.968;2023-01-13T02:36:30;7.20;99.90
5834;DHT22;2943;48.012;10.968;2023-01-13T02:39:02;7.20;99.90
5834;DHT22;2943;48.012;10.968;2023-01-13T02:41:35;7.30;99.90
5834;DHT22;2943;48.012;10.968;2023-01-13T02:44:25;7.30;99.90
5834;DHT22;2943;48.012;10.968;2023-01-13T02:47:00;7.30;99.90
5834;DHT22;2943;48.012;10.968;2023-01-13T02:49:33;7.40;99.90
5834;DHT22;2943;48.012;10.968;2023-01-13T02:52:06;7.40;99.90
5834;DHT22;2943;48.012;10.968;2023-01-13T02:54:34;7.40;99.90
5834;DHT22;2943;48.012;10.968;2023-01-13T02:57:05;7.40;99.90
5834;DHT22;2943;48.012;10.968;2023-01-13T02:59:34;7.40;99.90
5834;DHT22;2943;48.012;10.968;2023-01-13T03:02:05;7.40;99.90
5834;DHT22;2943;48.012;10.968;2023-01-13T03:04:51;7.40;99.90
5834;DHT22;2943;48.012;10.968;2023-01-13T03:10:16;7.40;99.90
5834;DHT22;2943;48.012;10.968;2023-01-13T03:12:51;7.40;99.90
5834;DHT22;2943;48.012;10.968;2023-01-13T03:15:26;7.40;99.90
5834;DHT22;2943;48.012;10.968;2023-01-13T03:18:11;7.40;99.90
5834;DHT22;2943;48.012;10.968;2023-01-13T03:20:43;7.40;99.90
5834;DHT22;2943;48.012;10.968;2023-01-13T03:23:18;7.30;99.90
5834;DHT22;2943;48.012;10.968;2023-01-13T03:25:52;7.30;99.90
5834;DHT22;2943;48.012;10.968;2023-01-13T03:28:26;7.30;99.90
5834;DHT22;2943;48.012;10.968;2023-01-13T03:30:58;7.30;99.90
5834;DHT22;2943;48.012;10.968;2023-01-13T03:33:33;7.30;99.90
5834;DHT22;2943;48.012;10.968;2023-01-13T03:36:04;7.30;99.90
5834;DHT22;2943;48.012;10.968;2023-01-13T03:38:35;7.30;99.90
5834;DHT22;2943;48.012;10.968;2023-01-13T03:41:05;7.40;99.90
5834;DHT22;2943;48.012;10.968;2023-01-13T03:43:36;7.40;99.90
5834;DHT22;2943;48.012;10.968;2023-01-13T03:46:25;7.40;99.90
5834;DHT22;2943;48.012;10.968;2023-01-13T03:48:57;7.50;99.90
5834;DHT22;2943;48.012;10.968;2023-01-13T03:51:27;7.50;99.90
5834;DHT22;2943;48.012;10.968;2023-01-13T03:54:00;7.50;99.90
5834;DHT22;2943;48.012;10.968;2023-01-13T03:56:33;7.50;99.90
5834;DHT22;2943;48.012;10.968;2023-01-13T03:59:04;7.50;99.90
5834;DHT22;2943;48.012;10.968;2023-01-13T04:01:36;7.50;99.90
5834;DHT22;2943;48.012;10.968;2023-01-13T04:04:12;7.60;99.90
5834;DHT22;2943;48.012;10.968;2023-01-13T04:06:47;7.50;99.90
5834;DHT22;2943;48.012;10.968;2023-01-13T04:09:23;7.50;99.90
5834;DHT22;2943;48.012;10.968;2023-01-13T04:11:57;7.40;99.90
5834;DHT22;2943;48.012;10.968;2023-01-13T04:14:26;7.40;99.90
5834;DHT22;2943;48.012;10.968;2023-01-13T04:16:54;7.40;99.90
5834;DHT22;2943;48.012;10.968;2023-01-13T04:19:24;7.40;99.90
5834;DHT22;2943;48.012;10.968;2023-01-13T04:21:51;7.40;99.90
5834;DHT22;2943;48.012;10.968;2023-01-13T04:24:18;7.50;99.90
5834;DHT22;2943;48.012;10.968;2023-01-13T04:26:45;7.40;99.90
5834;DHT22;2943;48.012;10.968;2023-01-13T04:29:12;7.50;99.90
5834;DHT22;2943;48.012;10.968;2023-01-13T04:31:39;7.50;99.90
5834;DHT22;2943;48.012;10.968;2023-01-13T04:34:06;7.50;99.90
5834;DHT22;2943;48.012;10.968;2023-01-13T04:36:34;7.50;99.90
5834;DHT22;2943;48.012;10.968;2023-01-13T04:39:01;7.50;99.90
5834;DHT22;2943;48.012;10.968;2023-01-13T04:41:28;7.60;99.90
5834;DHT22;2943;48.012;10.968;2023-01-13T04:44:16;7.60;99.90
5834;DHT22;2943;48.012;10.968;2023-01-13T04:46:43;7.60;99.90
5834;DHT22;2943;48.012;10.968;2023-01-13T04:49:10;7.70;99.90
5834;DHT22;2943;48.012;10.968;2023-01-13T04:51:38;7.70;99.90
5834;DHT22;2943;48.012;10.968;2023-01-13T04:54:05;7.70;99.90
5834;DHT22;2943;48.012;10.968;2023-01-13T04:56:31;7.70;99.90
5834;DHT22;2943;48.012;10.968;2023-01-13T04:58:58;7.70;99.90
5834;DHT22;2943;48.012;10.968;2023-01-13T05:01:25;7.70;99.90
5834;DHT22;2943;48.012;10.968;2023-01-13T05:03:52;7.70;99.90
5834;DHT22;2943;48.012;10.968;2023-01-13T05:06:20;7.80;99.90
5834;DHT22;2943;48.012;10.968;2023-01-13T05:08:48;7.80;99.90
5834;DHT22;2943;48.012;10.968;2023-01-13T05:11:15;7.80;99.90
5834;DHT22;2943;48.012;10.968;2023-01-13T05:13:59;7.80;99.90
5834;DHT22;2943;48.012;10.968;2023-01-13T05:16:44;7.80;99.90
5834;DHT22;2943;48.012;10.968;2023-01-13T05:19:29;7.80;99.90
5834;DHT22;2943;48.012;10.968;2023-01-13T05:21:56;7.80;99.90
5834;DHT22;2943;48.012;10.968;2023-01-13T05:24:42;7.80;99.90
5834;DHT22;2943;48.012;10.968;2023-01-13T05:27:26;7.80;99.90
5834;DHT22;2943;48.012;10.968;2023-01-13T05:29:54;7.90;99.90
5834;DHT22;2943;48.012;10.968;2023-01-13T05:32:24;7.90;99.90
5834;DHT22;2943;48.012;10.968;2023-01-13T05:34:52;7.90;99.90
5834;DHT22;2943;48.012;10.968;2023-01-13T05:37:19;7.90;99.90
5834;DHT22;2943;48.012;10.968;2023-01-13T05:39:49;7.90;99.90
5834;DHT22;2943;48.012;10.968;2023-01-13T05:42:34;7.90;99.90
5834;DHT22;2943;48.012;10.968;2023-01-13T05:45:19;7.90;99.90
5834;DHT22;2943;48.012;10.968;2023-01-13T05:47:46;8.00;99.90
5834;DHT22;2943;48.012;10.968;2023-01-13T05:50:12;7.90;99.90
5834;DHT22;2943;48.012;10.968;2023-01-13T05:52:39;7.90;99.90
5834;DHT22;2943;48.012;10.968;2023-01-13T05:55:09;7.90;99.90
5834;DHT22;2943;48.012;10.968;2023-01-13T05:57:36;7.90;99.90
5834;DHT22;2943;48.012;10.968;2023-01-13T06:00:03;7.90;99.90
5834;DHT22;2943;48.012;10.968;2023-01-13T06:02:30;7.90;99.90
5834;DHT22;2943;48.012;10.968;2023-01-13T06:04:57;7.90;99.90
5834;DHT22;2943;48.012;10.968;2023-01-13T06:07:24;7.90;99.90
5834;DHT22;2943;48.012;10.968;2023-01-13T06:09:51;7.80;99.90
5834;DHT22;2943;48.012;10.968;2023-01-13T06:12:20;7.80;99.90
5834;DHT22;2943;48.012;10.968;2023-01-13T06:14:47;7.80;99.90
5834;DHT22;2943;48.012;10.968;2023-01-13T06:17:14;7.80;99.90
5834;DHT22;2943;48.012;10.968;2023-01-13T06:19:41;7.80;99.90
5834;DHT22;2943;48.012;10.968;2023-01-13T06:22:12;7.80;99.90
5834;DHT22;2943;48.012;10.968;2023-01-13T06:24:40;7.80;99.90
5834;DHT22;2943;48.012;10.968;2023-01-13T06:27:08;7.80;99.90
5834;DHT22;2943;48.012;10.968;2023-01-13T06:29:36;7.80;99.90
5834;DHT22;2943;48.012;10.968;2023-01-13T06:32:06;7.80;99.90
5834;DHT22;2943;48.012;10.968;2023-01-13T06:34:35;7.80;99.90
5834;DHT22;2943;48.012;10.968;2023-01-13T06:37:03;7.80;99.90
5834;DHT22;2943;48.012;10.968;2023-01-13T06:39:30;7.90;99.90
5834;DHT22;2943;48.012;10.968;2023-01-13T06:41:57;7.80;99.90
5834;DHT22;2943;48.012;10.968;2023-01-13T06:44:44;7.80;99.90
5834;DHT22;2943;48.012;10.968;2023-01-13T06:47:11;7.80;99.90
5834;DHT22;2943;48.012;10.968;2023-01-13T06:49:38;7.70;99.90
5834;DHT22;2943;48.012;10.968;2023-01-13T06:52:05;7.70;99.90
5834;DHT22;2943;48.012;10.968;2023-01-13T06:54:32;7.80;99.90
5834;DHT22;2943;48.012;10.968;2023-01-13T06:57:00;7.70;99.90
5834;DHT22;2943;48.012;10.968;2023-01-13T06:59:26;7.70;99.90
5834;DHT22;2943;48.012;10.968;2023-01-13T07:01:55;7.70;99.90
5834;DHT22;2943;48.012;10.968;2023-01-13T07:04:22;7.70;99.90
5834;DHT22;2943;48.012;10.968;2023-01-13T07:06:49;7.70;99.90
5834;DHT22;2943;48.012;10.968;2023-01-13T07:09:18;7.60;99.90
5834;DHT22;2943;48.012;10.968;2023-01-13T07:11:45;7.60;99.90
5834;DHT22;2943;48.012;10.968;2023-01-13T07:14:12;7.50;99.90
5834;DHT22;2943;48.012;10.968;2023-01-13T07:16:58;7.50;99.90
5834;DHT22;2943;48.012;10.968;2023-01-13T07:19:25;7.50;99.90
5834;DHT22;2943;48.012;10.968;2023-01-13T07:21:52;7.50;99.90
5834;DHT22;2943;48.012;10.968;2023-01-13T07:24:20;7.50;99.90
5834;DHT22;2943;48.012;10.968;2023-01-13T07:26:49;7.50;99.90
5834;DHT22;2943;48.012;10.968;2023-01-13T07:29:17;7.50;99.90
5834;DHT22;2943;48.012;10.968;2023-01-13T07:31:44;7.50;99.90
5834;DHT22;2943;48.012;10.968;2023-01-13T07:34:12;7.50;99.90
5834;DHT22;2943;48.012;10.968;2023-01-13T07:36:38;7.60;99.90
5834;DHT22;2943;48.012;10.968;2023-01-13T07:39:06;7.60;99.90
5834;DHT22;2943;48.012;10.968;2023-01-13T07:41:33;7.60;99.90
5834;DHT22;2943;48.012;10.968;2023-01-13T07:44:17;7.60;99.90
5834;DHT22;2943;48.012;10.968;2023-01-13T07:46:46;7.70;99.90
5834;DHT22;2943;48.012;10.968;2023-01-13T07:49:16;7.70;99.90
5834;DHT22;2943;48.012;10.968;2023-01-13T07:51:43;7.70;99.90
5834;DHT22;2943;48.012;10.968;2023-01-13T07:54:10;7.70;99.90
5834;DHT22;2943;48.012;10.968;2023-01-13T07:56:36;7.70;99.90
5834;DHT22;2943;48.012;10.968;2023-01-13T07:59:03;7.70;99.90
5834;DHT22;2943;48.012;10.968;2023-01-13T08:01:32;7.70;99.90
5834;DHT22;2943;48.012;10.968;2023-01-13T08:04:00;7.70;99.90
5834;DHT22;2943;48.012;10.968;2023-01-13T08:06:28;7.80;99.90
5834;DHT22;2943;48.012;10.968;2023-01-13T08:08:55;7.80;99.90
5834;DHT22;2943;48.012;10.968;2023-01-13T08:11:23;7.90;99.90
5834;DHT22;2943;48.012;10.968;2023-01-13T08:13:54;7.90;99.90
5834;DHT22;2943;48.012;10.968;2023-01-13T08:16:21;8.00;99.90
5834;DHT22;2943;48.012;10.968;2023-01-13T08:18:48;8.00;99.90
5834;DHT22;2943;48.012;10.968;2023-01-13T08:21:15;8.00;99.90
5834;DHT22;2943;48.012;10.968;2023-01-13T08:23:44;8.10;99.90
5834;DHT22;2943;48.012;10.968;2023-01-13T08:26:13;8.10;99.90
5834;DHT22;2943;48.012;10.968;2023-01-13T08:28:40;8.10;99.90
5834;DHT22;2943;48.012;10.968;2023-01-13T08:31:09;8.10;99.90
5834;DHT22;2943;48.012;10.968;2023-01-13T08:33:36;8.20;99.90
5834;DHT22;2943;48.012;10.968;2023-01-13T08:36:05;8.20;99.90
5834;DHT22;2943;48.012;10.968;2023-01-13T08:38:32;8.20;99.90
5834;DHT22;2943;48.012;10.968;2023-01-13T08:41:06;8.20;99.90
5834;DHT22;2943;48.012;10.968;2023-01-13T08:43:33;8.20;99.90
5834;DHT22;2943;48.012;10.968;2023-01-13T08:46:01;8.30;99.90
5834;DHT22;2943;48.012;10.968;2023-01-13T08:48:29;8.30;99.90
5834;DHT22;2943;48.012;10.968;2023-01-13T08:51:01;8.30;99.90
5834;DHT22;2943;48.012;10.968;2023-01-13T08:53:28;8.40;99.90
5834;DHT22;2943;48.012;10.968;2023-01-13T08:55:55;8.40;99.90
5834;DHT22;2943;48.012;10.968;2023-01-13T08:58:23;8.50;99.90
5834;DHT22;2943;48.012;10.968;2023-01-13T09:00:50;8.50;99.90
5834;DHT22;2943;48.012;10.968;2023-01-13T09:03:17;8.50;99.90
5834;DHT22;2943;48.012;10.968;2023-01-13T09:05:43;8.60;99.90
5834;DHT22;2943;48.012;10.968;2023-01-13T09:08:11;8.50;99.90
5834;DHT22;2943;48.012;10.968;2023-01-13T09:10:38;8.60;99.90
5834;DHT22;2943;48.012;10.968;2023-01-13T09:13:06;8.60;99.90
5834;DHT22;2943;48.012;10.968;2023-01-13T09:15:41;8.60;99.90
5834;DHT22;2943;48.012;10.968;2023-01-13T09:18:09;8.60;99.90
5834;DHT22;2943;48.012;10.968;2023-01-13T09:20:36;8.60;99.90
5834;DHT22;2943;48.012;10.968;2023-01-13T09:23:04;8.60;99.90
5834;DHT22;2943;48.012;10.968;2023-01-13T09:25:31;8.60;99.90
5834;DHT22;2943;48.012;10.968;2023-01-13T09:28:00;8.60;99.90
5834;DHT22;2943;48.012;10.968;2023-01-13T09:30:26;8.70;99.90
5834;DHT22;2943;48.012;10.968;2023-01-13T09:32:56;8.70;99.90
5834;DHT22;2943;48.012;10.968;2023-01-13T09:35:37;8.80;99.90
5834;DHT22;2943;48.012;10.968;2023-01-13T09:38:04;8.80;99.90
5834;DHT22;2943;48.012;10.968;2023-01-13T09:40:32;8.90;99.90
5834;DHT22;2943;48.012;10.968;2023-01-13T09:43:02;9.00;99.90
5834;DHT22;2943;48.012;10.968;2023-01-13T09:45:54;9.00;99.90
5834;DHT22;2943;48.012;10.968;2023-01-13T09:48:25;9.10;99.90
5834;DHT22;2943;48.012;10.968;2023-01-13T09:50:59;9.10;99.90
5834;DHT22;2943;48.012;10.968;2023-01-13T09:53:32;9.10;99.90
5834;DHT22;2943;48.012;10.968;2023-01-13T09:56:00;9.20;99.90
5834;DHT22;2943;48.012;10.968;2023-01-13T09:58:26;9.20;99.90
5834;DHT22;2943;48.012;10.968;2023-01-13T10:01:05;9.20;99.90
5834;DHT22;2943;48.012;10.968;2023-01-13T10:03:36;9.20;99.90
5834;DHT22;2943;48.012;10.968;2023-01-13T10:06:09;9.20;99.90
5834;DHT22;2943;48.012;10.968;2023-01-13T10:08:39;9.20;99.90
5834;DHT22;2943;48.012;10.968;2023-01-13T10:11:12;9.30;99.90
5834;DHT22;2943;48.012;10.968;2023-01-13T10:13:57;9.30;99.90
5834;DHT22;2943;48.012;10.968;2023-01-13T10:16:31;9.40;99.90
5834;DHT22;2943;48.012;10.968;2023-01-13T10:19:11;9.50;99.90
5834;DHT22;2943;48.012;10.968;2023-01-13T10:22:06;9.60;99.90
5834;DHT22;2943;48.012;10.968;2023-01-13T10:25:01;9.70;99.90
5834;DHT22;2943;48.012;10.968;2023-01-13T10:27:32;9.70;99.90
5834;DHT22;2943;48.012;10.968;2023-01-13T10:30:10;9.80;99.90
5834;DHT22;2943;48.012;10.968;2023-01-13T10:32:37;9.80;99.90
5834;DHT22;2943;48.012;10.968;2023-01-13T10:35:07;9.80;99.90
5834;DHT22;2943;48.012;10.968;2023-01-13T10:37:34;9.90;99.90
5834;DHT22;2943;48.012;10.968;2023-01-13T10:40:03;9.90;99.90
5834;DHT22;2943;48.012;10.968;2023-01-13T10:42:31;9.90;99.90
5834;DHT22;2943;48.012;10.968;2023-01-13T10:44:59;9.80;99.90
5834;DHT22;2943;48.012;10.968;2023-01-13T10:47:29;9.80;99.90
5834;DHT22;2943;48.012;10.968;2023-01-13T10:50:03;9.80;99.90
5834;DHT22;2943;48.012;10.968;2023-01-13T10:52:39;9.70;99.90
5834;DHT22;2943;48.012;10.968;2023-01-13T10:55:24;9.70;99.90
5834;DHT22;2943;48.012;10.968;2023-01-13T10:57:52;9.70;99.90
5834;DHT22;2943;48.012;10.968;2023-01-13T11:00:26;9.70;99.90
5834;DHT22;2943;48.012;10.968;2023-01-13T11:03:10;9.70;99.90
5834;DHT22;2943;48.012;10.968;2023-01-13T11:05:38;9.70;99.90
5834;DHT22;2943;48.012;10.968;2023-01-13T11:08:15;9.60;99.90
5834;DHT22;2943;48.012;10.968;2023-01-13T11:10:44;9.50;99.90
5834;DHT22;2943;48.012;10.968;2023-01-13T11:13:15;9.40;99.90
5834;DHT22;2943;48.012;10.968;2023-01-13T11:15:45;9.30;99.90
5834;DHT22;2943;48.012;10.968;2023-01-13T11:18:20;9.20;99.90
5834;DHT22;2943;48.012;10.968;2023-01-13T11:20:50;9.00;99.90
5834;DHT22;2943;48.012;10.968;2023-01-13T11:23:22;9.00;99.90
5834;DHT22;2943;48.012;10.968;2023-01-13T11:25:55;8.90;99.90
5834;DHT22;2943;48.012;10.968;2023-01-13T11:28:45;8.90;99.90
5834;DHT22;2943;48.012;10.968;2023-01-13T11:31:17;8.90;99.90
5834;DHT22;2943;48.012;10.968;2023-01-13T11:33:51;9.00;99.90
5834;DHT22;2943;48.012;10.968;2023-01-13T11:36:22;9.00;99.90
5834;DHT22;2943;48.012;10.968;2023-01-13T11:38:53;9.00;99.90
5834;DHT22;2943;48.012;10.968;2023-01-13T11:41:30;9.00;99.90
5834;DHT22;2943;48.012;10.968;2023-01-13T11:44:06;9.00;99.90
5834;DHT22;2943;48.012;10.968;2023-01-13T11:46:33;9.00;99.90
5834;DHT22;2943;48.012;10.968;2023-01-13T11:49:00;9.10;99.90
5834;DHT22;2943;48.012;10.968;2023-01-13T11:51:40;9.00;99.90
5834;DHT22;2943;48.012;10.968;2023-01-13T11:54:22;9.00;99.90
5834;DHT22;2943;48.012;10.968;2023-01-13T11:57:13;9.00;99.90
5834;DHT22;2943;48.012;10.968;2023-01-13T12:00:15;9.00;99.90
5834;DHT22;2943;48.012;10.968;2023-01-13T12:02:51;8.90;99.90
5834;DHT22;2943;48.012;10.968;2023-01-13T12:05:28;8.80;99.90
5834;DHT22;2943;48.012;10.968;2023-01-13T12:08:09;8.80;99.90
5834;DHT22;2943;48.012;10.968;2023-01-13T12:10:50;8.70;99.90
5834;DHT22;2943;48.012;10.968;2023-01-13T12:13:25;8.70;99.90
5834;DHT22;2943;48.012;10.968;2023-01-13T12:16:10;8.60;99.90
5834;DHT22;2943;48.012;10.968;2023-01-13T12:19:09;8.60;99.90
5834;DHT22;2943;48.012;10.968;2023-01-13T12:24:38;8.50;99.90
5834;DHT22;2943;48.012;10.968;2023-01-13T12:27:13;8.40;99.90
5834;DHT22;2943;48.012;10.968;2023-01-13T12:29:42;8.40;99.90
5834;DHT22;2943;48.012;10.968;2023-01-13T12:32:13;8.40;99.90
5834;DHT22;2943;48.012;10.968;2023-01-13T12:35:02;8.40;99.90
5834;DHT22;2943;48.012;10.968;2023-01-13T12:37:36;8.40;99.90
5834;DHT22;2943;48.012;10.968;2023-01-13T12:40:21;8.40;99.90
5834;DHT22;2943;48.012;10.968;2023-01-13T12:42:57;8.40;99.90
5834;DHT22;2943;48.012;10.968;2023-01-13T12:45:44;8.50;99.90
5834;DHT22;2943;48.012;10.968;2023-01-13T12:48:44;8.50;99.90
5834;DHT22;2943;48.012;10.968;2023-01-13T12:51:21;8.50;99.90
5834;DHT22;2943;48.012;10.968;2023-01-13T12:53:48;8.50;99.90
5834;DHT22;2943;48.012;10.968;2023-01-13T12:56:37;8.50;99.90
5834;DHT22;2943;48.012;10.968;2023-01-13T12:59:34;8.50;99.90
5834;DHT22;2943;48.012;10.968;2023-01-13T13:02:32;8.40;99.90
5834;DHT22;2943;48.012;10.968;2023-01-13T13:05:36;8.40;99.90
5834;DHT22;2943;48.012;10.968;2023-01-13T13:08:11;8.50;99.90
5834;DHT22;2943;48.012;10.968;2023-01-13T13:10:46;8.50;99.90
5834;DHT22;2943;48.012;10.968;2023-01-13T13:13:39;8.50;99.90
5834;DHT22;2943;48.012;10.968;2023-01-13T13:16:42;8.40;99.90
5834;DHT22;2943;48.012;10.968;2023-01-13T13:19:46;8.40;99.90
5834;DHT22;2943;48.012;10.968;2023-01-13T13:22:40;8.40;99.90
5834;DHT22;2943;48.012;10.968;2023-01-13T13:25:25;8.50;99.90
5834;DHT22;2943;48.012;10.968;2023-01-13T13:28:18;8.40;99.90
5834;DHT22;2943;48.012;10.968;2023-01-13T13:30:55;8.40;99.90
5834;DHT22;2943;48.012;10.968;2023-01-13T13:33:38;8.30;99.90
5834;DHT22;2943;48.012;10.968;2023-01-13T13:36:19;8.30;99.90
5834;DHT22;2943;48.012;10.968;2023-01-13T13:39:01;8.30;99.90
5834;DHT22;2943;48.012;10.968;2023-01-13T13:41:48;8.30;99.90
5834;DHT22;2943;48.012;10.968;2023-01-13T13:44:36;8.30;99.90
5834;DHT22;2943;48.012;10.968;2023-01-13T13:47:20;8.20;99.90
5834;DHT22;2943;48.012;10.968;2023-01-13T13:49:51;8.20;99.90
5834;DHT22;2943;48.012;10.968;2023-01-13T13:52:21;8.20;99.90
5834;DHT22;2943;48.012;10.968;2023-01-13T13:54:53;8.20;99.90
5834;DHT22;2943;48.012;10.968;2023-01-13T13:57:26;8.20;99.90
5834;DHT22;2943;48.012;10.968;2023-01-13T13:59:58;8.10;99.90
5834;DHT22;2943;48.012;10.968;2023-01-13T14:02:28;8.10;99.90
5834;DHT22;2943;48.012;10.968;2023-01-13T14:05:17;8.10;99.90
5834;DHT22;2943;48.012;10.968;2023-01-13T14:07:46;8.10;99.90
5834;DHT22;2943;48.012;10.968;2023-01-13T14:10:18;8.00;99.90
5834;DHT22;2943;48.012;10.968;2023-01-13T14:12:45;7.80;99.90
5834;DHT22;2943;48.012;10.968;2023-01-13T14:15:24;7.40;99.90
5834;DHT22;2943;48.012;10.968;2023-01-13T14:17:51;7.00;99.90
5834;DHT22;2943;48.012;10.968;2023-01-13T14:20:20;6.70;99.90
5834;DHT22;2943;48.012;10.968;2023-01-13T14:22:47;6.40;99.90
5834;DHT22;2943;48.012;10.968;2023-01-13T14:25:27;6.20;99.90
5834;DHT22;2943;48.012;10.968;2023-01-13T14:27:55;6.20;99.90
5834;DHT22;2943;48.012;10.968;2023-01-13T14:30:24;6.10;99.90
5834;DHT22;2943;48.012;10.968;2023-01-13T14:32:53;6.10;99.90
5834;DHT22;2943;48.012;10.968;2023-01-13T14:35:22;6.00;99.90
5834;DHT22;2943;48.012;10.968;2023-01-13T14:37:49;5.90;99.90
5834;DHT22;2943;48.012;10.968;2023-01-13T14:40:40;5.80;99.90
5834;DHT22;2943;48.012;10.968;2023-01-13T14:43:14;5.60;99.90
5834;DHT22;2943;48.012;10.968;2023-01-13T14:45:52;5.50;99.90
5834;DHT22;2943;48.012;10.968;2023-01-13T14:48:20;5.50;99.90
5834;DHT22;2943;48.012;10.968;2023-01-13T14:50:49;5.40;99.90
5834;DHT22;2943;48.012;10.968;2023-01-13T14:53:35;5.30;99.90
5834;DHT22;2943;48.012;10.968;2023-01-13T14:56:38;5.30;99.90
5834;DHT22;2943;48.012;10.968;2023-01-13T14:59:32;5.30;99.90
5834;DHT22;2943;48.012;10.968;2023-01-13T15:02:00;5.30;99.90
5834;DHT22;2943;48.012;10.968;2023-01-13T15:04:32;5.20;99.90
5834;DHT22;2943;48.012;10.968;2023-01-13T15:07:04;5.30;99.90
5834;DHT22;2943;48.012;10.968;2023-01-13T15:09:43;5.30;99.90
5834;DHT22;2943;48.012;10.968;2023-01-13T15:12:16;5.30;99.90
5834;DHT22;2943;48.012;10.968;2023-01-13T15:14:48;5.40;99.90
5834;DHT22;2943;48.012;10.968;2023-01-13T15:17:15;5.40;99.90
5834;DHT22;2943;48.012;10.968;2023-01-13T15:19:43;5.50;99.90
5834;DHT22;2943;48.012;10.968;2023-01-13T15:22:11;5.60;99.90
5834;DHT22;2943;48.012;10.968;2023-01-13T15:24:38;5.60;99.90
5834;DHT22;2943;48.012;10.968;2023-01-13T15:27:15;5.60;99.90
5834;DHT22;2943;48.012;10.968;2023-01-13T15:29:42;5.70;99.90
5834;DHT22;2943;48.012;10.968;2023-01-13T15:32:16;5.70;99.90
5834;DHT22;2943;48.012;10.968;2023-01-13T15:34:43;5.70;99.90
5834;DHT22;2943;48.012;10.968;2023-01-13T15:37:12;5.70;99.90
5834;DHT22;2943;48.012;10.968;2023-01-13T15:39:39;5.70;99.90
5834;DHT22;2943;48.012;10.968;2023-01-13T15:42:10;5.70;99.90
5834;DHT22;2943;48.012;10.968;2023-01-13T15:44:54;5.70;99.90
5834;DHT22;2943;48.012;10.968;2023-01-13T15:47:39;5.70;99.90
5834;DHT22;2943;48.012;10.968;2023-01-13T15:50:11;5.70;99.90
5834;DHT22;2943;48.012;10.968;2023-01-13T15:52:40;5.80;99.90
5834;DHT22;2943;48.012;10.968;2023-01-13T15:55:07;5.80;99.90
5834;DHT22;2943;48.012;10.968;2023-01-13T15:57:36;5.90;99.90
5834;DHT22;2943;48.012;10.968;2023-01-13T16:00:09;5.90;99.90
5834;DHT22;2943;48.012;10.968;2023-01-13T16:02:37;6.00;99.90
5834;DHT22;2943;48.012;10.968;2023-01-13T16:05:05;6.00;99.90
5834;DHT22;2943;48.012;10.968;2023-01-13T16:07:32;6.00;99.90
5834;DHT22;2943;48.012;10.968;2023-01-13T16:10:00;5.90;99.90
5834;DHT22;2943;48.012;10.968;2023-01-13T16:12:29;5.90;99.90
5834;DHT22;2943;48.012;10.968;2023-01-13T16:14:56;5.90;99.90
5834;DHT22;2943;48.012;10.968;2023-01-13T16:17:24;5.90;99.90
5834;DHT22;2943;48.012;10.968;2023-01-13T16:19:54;5.90;99.90
5834;DHT22;2943;48.012;10.968;2023-01-13T16:22:22;6.00;99.90
5834;DHT22;2943;48.012;10.968;2023-01-13T16:24:49;6.00;99.90
5834;DHT22;2943;48.012;10.968;2023-01-13T16:27:20;6.10;99.90
5834;DHT22;2943;48.012;10.968;2023-01-13T16:29:48;6.20;99.90
5834;DHT22;2943;48.012;10.968;2023-01-13T16:32:16;6.10;99.90
5834;DHT22;2943;48.012;10.968;2023-01-13T16:34:44;6.20;99.90
5834;DHT22;2943;48.012;10.968;2023-01-13T16:37:18;6.20;99.90
5834;DHT22;2943;48.012;10.968;2023-01-13T16:39:45;6.20;99.90
5834;DHT22;2943;48.012;10.968;2023-01-13T16:42:11;6.20;99.90
5834;DHT22;2943;48.012;10.968;2023-01-13T16:44:40;6.20;99.90
5834;DHT22;2943;48.012;10.968;2023-01-13T16:47:11;6.10;99.90